Time;durP1;ratioP1;P1;durP2;ratioP2;P2;SDS_P1;SDS_P2;PMS_P1;PMS_P2;Temp;Humidity;BMP_temperature;BMP_pressure;BME280_temperature;BME280_humidity;BME280_pressure;Samples;Min_cycle;Max_cycle;Signal;HPM_P1;HPM_P2
2022/10/06 00:02:19;;;;;;;3.05;1.08;;;13.30;99.90;;;;;;21038036;28;20150;-39
2022/10/06 00:12:20;;;;;;;2.10;0.85;;;13.30;99.90;;;;;;21040347;28;20039;-39
2022/10/06 00:22:21;;;;;;;3.00;0.95;;;13.30;99.90;;;;;;21032363;28;20066;-39
2022/10/06 00:32:22;;;;;;;0.82;0.30;;;13.20;99.90;;;;;;21035671;28;20389;-39
2022/10/06 00:42:28;;;;;;;3.17;1.05;;;13.00;99.90;;;;;;21034417;28;20063;-39
2022/10/06 00:52:30;;;;;;;1.02;0.30;;;12.80;99.90;;;;;;21033832;28;20028;-39
2022/10/06 01:02:46;;;;;;;1.13;0.30;;;12.70;99.90;;;;;;21027076;28;20460;-39
2022/10/06 01:12:47;;;;;;;2.00;0.63;;;12.40;99.90;;;;;;21021087;28;20295;-39
2022/10/06 01:23:15;;;;;;;3.28;0.55;;;12.50;99.90;;;;;;21030158;28;20433;-39
2022/10/06 01:33:16;;;;;;;4.13;1.17;;;12.60;99.90;;;;;;21021795;28;20964;-39
2022/10/06 01:43:17;;;;;;;1.45;0.30;;;12.50;99.90;;;;;;21032541;28;20745;-39
2022/10/06 01:53:19;;;;;;;3.05;1.52;;;12.30;99.90;;;;;;21027319;28;20417;-39
2022/10/06 02:03:20;;;;;;;2.13;0.75;;;12.40;99.90;;;;;;21024412;28;20036;-39
2022/10/06 02:13:25;;;;;;;2.40;0.88;;;12.30;99.90;;;;;;21042546;28;20039;-39
2022/10/06 02:23:26;;;;;;;0.93;0.52;;;12.10;99.90;;;;;;21036714;28;20048;-39
2022/10/06 02:33:27;;;;;;;1.15;0.30;;;12.00;99.90;;;;;;21040307;28;20058;-39
2022/10/06 02:43:30;;;;;;;1.77;0.52;;;11.80;99.90;;;;;;21039318;28;20039;-39
2022/10/06 02:53:31;;;;;;;6.38;1.50;;;11.70;99.90;;;;;;21040872;28;20074;-39
2022/10/06 03:03:34;;;;;;;1.70;0.38;;;11.70;99.90;;;;;;21038117;28;20117;-39
2022/10/06 03:13:35;;;;;;;3.13;0.50;;;11.70;99.90;;;;;;21039406;28;20135;-39
2022/10/06 03:23:36;;;;;;;1.58;0.30;;;11.70;99.90;;;;;;21032833;28;20118;-39
2022/10/06 03:33:37;;;;;;;1.73;0.50;;;11.70;99.90;;;;;;21036259;28;20569;-39
2022/10/06 03:43:39;;;;;;;1.33;0.40;;;11.60;99.90;;;;;;21038157;28;20040;-39
2022/10/06 03:53:44;;;;;;;2.33;1.20;;;11.60;99.90;;;;;;21037037;28;20036;-39
2022/10/06 04:03:45;;;;;;;1.45;0.30;;;11.60;99.90;;;;;;21029701;28;20035;-39
2022/10/06 04:13:47;;;;;;;5.95;2.10;;;11.50;99.90;;;;;;21033526;28;20035;-39
2022/10/06 04:23:50;;;;;;;2.67;1.15;;;11.50;99.90;;;;;;21030685;28;20047;-39
2022/10/06 04:33:53;;;;;;;1.33;0.60;;;11.50;99.90;;;;;;21029001;28;20036;-39
2022/10/06 04:43:55;;;;;;;0.98;0.25;;;11.40;99.90;;;;;;21033105;28;20096;-39
2022/10/06 04:53:56;;;;;;;0.88;0.30;;;11.30;99.90;;;;;;21027944;28;20126;-39
2022/10/06 05:03:59;;;;;;;3.35;0.93;;;11.30;99.90;;;;;;21031134;28;20043;-39
2022/10/06 05:14:00;;;;;;;1.27;0.35;;;11.20;99.90;;;;;;21028518;28;20657;-39
2022/10/06 05:24:02;;;;;;;2.00;0.57;;;11.20;99.90;;;;;;21022679;28;20148;-39
2022/10/06 05:34:03;;;;;;;18.35;2.13;;;11.00;99.90;;;;;;21018303;28;20044;-39
2022/10/06 05:44:04;;;;;;;1.55;0.43;;;10.80;99.90;;;;;;21038171;28;20082;-39
2022/10/06 05:54:05;;;;;;;9.23;0.63;;;10.80;99.90;;;;;;21033618;28;20547;-39
2022/10/06 06:04:09;;;;;;;2.20;0.68;;;10.60;99.90;;;;;;20968321;28;20147;-41
2022/10/06 06:14:17;;;;;;;2.00;0.80;;;10.50;99.90;;;;;;21033518;28;20080;-41
2022/10/06 06:24:18;;;;;;;7.30;1.50;;;10.50;99.90;;;;;;21036744;28;20554;-41
2022/10/06 06:34:19;;;;;;;4.90;1.27;;;10.60;99.90;;;;;;21031067;28;20036;-39
2022/10/06 06:44:21;;;;;;;2.80;1.23;;;10.60;99.90;;;;;;20995595;28;20056;-39
2022/10/06 06:54:21;;;;;;;10.48;1.92;;;10.80;99.90;;;;;;21021533;28;20186;-39
2022/10/06 07:04:22;;;;;;;1.85;0.68;;;10.80;99.90;;;;;;21025234;28;20142;-42
2022/10/06 07:14:24;;;;;;;4.00;1.27;;;10.90;99.90;;;;;;21020511;28;20045;-39
2022/10/06 07:34:45;;;;;;;2.60;0.95;;;11.40;99.90;;;;;;21017256;28;21967;-39
2022/10/06 07:45:37;;;;;;;4.18;1.75;;;11.60;99.90;;;;;;21013792;28;20124;-39
2022/10/06 07:55:08;;;;;;;2.47;0.82;;;12.10;99.90;;;;;;21030262;28;20911;-39
2022/10/06 08:05:09;;;;;;;4.38;1.27;;;12.40;99.90;;;;;;21026723;28;20108;-39
2022/10/06 08:15:11;;;;;;;2.33;0.50;;;12.70;99.90;;;;;;21035305;28;20039;-39
2022/10/06 08:25:12;;;;;;;6.65;1.20;;;13.00;99.90;;;;;;21035537;28;20075;-39
2022/10/06 08:35:13;;;;;;;4.82;0.93;;;13.50;99.90;;;;;;21048286;28;20526;-39
2022/10/06 08:45:34;;;;;;;1.27;0.57;;;14.00;99.90;;;;;;20985829;28;20645;-39
2022/10/06 08:55:49;;;;;;;1.58;0.68;;;14.30;99.90;;;;;;21011574;28;20128;-39
2022/10/06 09:05:52;;;;;;;8.77;1.20;;;14.60;99.90;;;;;;21010884;28;20044;-39
2022/10/06 09:16:06;;;;;;;4.20;1.58;;;14.50;99.90;;;;;;21015483;28;20154;-39
2022/10/06 09:26:12;;;;;;;2.83;1.33;;;14.60;99.90;;;;;;21022802;28;20889;-39
2022/10/06 09:36:14;;;;;;;2.33;0.47;;;15.00;99.90;;;;;;21020781;28;20059;-39
2022/10/06 09:46:33;;;;;;;2.55;0.30;;;15.10;99.90;;;;;;21019721;28;20040;-39
2022/10/06 09:56:38;;;;;;;0.75;0.20;;;15.00;99.90;;;;;;21022822;28;20078;-39
2022/10/06 10:06:40;;;;;;;2.25;0.40;;;14.80;99.90;;;;;;21033731;28;20993;-39
2022/10/06 10:16:41;;;;;;;3.50;0.80;;;14.90;99.90;;;;;;21033621;28;20493;-39
2022/10/06 10:26:59;;;;;;;4.78;1.00;;;15.20;99.90;;;;;;21035354;28;20471;-39
2022/10/06 10:37:04;;;;;;;2.57;0.67;;;15.70;99.90;;;;;;21027106;28;20857;-39
2022/10/06 10:47:24;;;;;;;6.15;1.20;;;16.10;99.90;;;;;;21030990;28;20545;-39
2022/10/06 10:57:34;;;;;;;0.75;0.22;;;16.30;99.90;;;;;;21031736;28;20128;-39
2022/10/06 11:08:10;;;;;;;2.13;1.05;;;16.40;99.90;;;;;;21025269;28;20123;-39
2022/10/06 11:18:45;;;;;;;1.70;0.30;;;17.20;99.90;;;;;;20986277;28;20854;-39
2022/10/06 11:29:03;;;;;;;0.63;0.15;;;17.70;99.90;;;;;;20948997;28;21942;-39
2022/10/06 11:39:28;;;;;;;0.60;0.30;;;18.10;99.90;;;;;;20923755;28;21856;-39
2022/10/06 11:49:32;;;;;;;3.17;0.68;;;18.10;99.90;;;;;;20934971;28;20076;-39
2022/10/06 11:59:33;;;;;;;2.15;0.63;;;18.30;99.90;;;;;;20940957;28;20508;-40
2022/10/06 12:09:41;;;;;;;0.57;0.20;;;19.00;99.90;;;;;;20895387;28;20155;-39
2022/10/06 12:20:10;;;;;;;1.23;0.55;;;18.90;99.90;;;;;;20904650;28;21697;-40
2022/10/06 12:30:23;;;;;;;1.60;0.30;;;19.30;99.90;;;;;;21010472;28;20820;-39
2022/10/06 12:40:47;;;;;;;2.15;0.28;;;19.40;99.00;;;;;;20976111;28;20048;-39
2022/10/06 12:51:12;;;;;;;1.75;0.73;;;19.70;99.90;;;;;;21010516;28;22107;-39
2022/10/06 13:01:14;;;;;;;0.90;0.38;;;19.30;99.90;;;;;;20991034;28;20906;-39
2022/10/06 13:11:22;;;;;;;0.90;0.25;;;19.00;99.90;;;;;;21011130;28;20200;-40
2022/10/06 13:21:24;;;;;;;2.22;0.30;;;19.80;99.90;;;;;;21003217;28;20933;-40
2022/10/06 13:31:27;;;;;;;1.50;0.47;;;20.20;98.90;;;;;;21019834;28;20156;-40
2022/10/06 13:41:40;;;;;;;4.97;0.82;;;20.20;99.90;;;;;;21018050;28;20253;-40
2022/10/06 13:51:47;;;;;;;0.68;0.20;;;20.30;99.90;;;;;;21012583;28;20917;-40
2022/10/06 14:01:48;;;;;;;1.43;0.23;;;20.40;99.70;;;;;;21016704;28;20122;-40
2022/10/06 14:11:59;;;;;;;0.85;0.20;;;19.80;99.90;;;;;;21029765;28;20119;-39
2022/10/06 14:22:01;;;;;;;1.63;0.28;;;19.60;99.90;;;;;;21024722;28;20281;-39
2022/10/06 14:32:07;;;;;;;6.47;0.75;;;19.10;99.50;;;;;;20969111;28;20040;-39
2022/10/06 14:42:08;;;;;;;1.88;0.70;;;18.40;99.90;;;;;;20912948;28;20114;-39
2022/10/06 14:52:10;;;;;;;0.77;0.47;;;18.20;99.90;;;;;;20928731;28;20048;-39
2022/10/06 15:02:12;;;;;;;4.85;0.80;;;17.60;99.80;;;;;;20926100;28;20131;-39
2022/10/06 15:12:14;;;;;;;0.63;0.20;;;17.60;99.90;;;;;;20930796;28;20048;-39
2022/10/06 15:22:14;;;;;;;2.60;0.80;;;17.50;99.90;;;;;;20953800;28;20136;-39
2022/10/06 15:32:15;;;;;;;1.55;0.52;;;17.00;99.90;;;;;;20944853;28;20045;-39
2022/10/06 15:42:20;;;;;;;1.77;0.38;;;16.90;99.90;;;;;;20957596;28;20241;-39
2022/10/06 15:52:21;;;;;;;3.33;1.05;;;16.50;99.90;;;;;;20949225;28;20101;-39
2022/10/06 16:02:22;;;;;;;1.27;0.43;;;16.20;99.90;;;;;;20953630;28;20105;-39
2022/10/06 16:12:24;;;;;;;6.00;0.90;;;16.10;99.90;;;;;;20916391;28;20086;-39
2022/10/06 16:22:25;;;;;;;2.40;0.82;;;15.90;99.90;;;;;;20959811;28;20050;-39
2022/10/06 16:32:26;;;;;;;1.92;0.40;;;15.70;99.90;;;;;;20990920;28;20032;-39
2022/10/06 16:42:27;;;;;;;6.97;1.00;;;15.30;99.90;;;;;;21029012;28;20039;-39
2022/10/06 16:52:28;;;;;;;1.15;0.50;;;15.20;99.90;;;;;;21042035;28;20525;-39
2022/10/06 17:02:29;;;;;;;1.35;0.70;;;15.00;99.90;;;;;;21034750;28;20044;-39
2022/10/06 17:12:30;;;;;;;2.13;1.08;;;14.90;99.90;;;;;;21039000;28;20102;-39
2022/10/06 17:22:31;;;;;;;1.35;0.73;;;14.60;99.90;;;;;;20966273;28;20041;-40
2022/10/06 17:32:32;;;;;;;1.50;0.60;;;14.50;99.90;;;;;;20962741;28;20036;-39
2022/10/06 17:42:34;;;;;;;2.88;0.50;;;14.20;99.90;;;;;;20963023;28;20083;-39
2022/10/06 17:52:37;;;;;;;2.17;0.68;;;14.00;99.90;;;;;;21010949;28;20402;-39
2022/10/06 18:02:39;;;;;;;3.47;0.73;;;13.90;99.90;;;;;;20984685;28;20262;-39
2022/10/06 18:12:40;;;;;;;2.65;0.85;;;13.70;99.90;;;;;;20947860;28;20076;-39
2022/10/06 18:22:41;;;;;;;1.42;0.32;;;13.60;99.90;;;;;;20959948;28;20051;-39
2022/10/06 18:32:42;;;;;;;1.17;0.40;;;13.50;99.90;;;;;;21035274;28;20051;-39
2022/10/06 18:42:43;;;;;;;1.25;0.43;;;13.40;99.90;;;;;;21023078;28;20043;-39
2022/10/06 18:52:44;;;;;;;2.88;0.50;;;13.30;99.90;;;;;;21032649;28;20088;-39
2022/10/06 19:02:47;;;;;;;2.30;0.95;;;13.20;99.90;;;;;;20990650;28;20040;-39
2022/10/06 19:12:48;;;;;;;1.40;0.40;;;13.00;99.90;;;;;;20946354;28;20064;-39
2022/10/06 19:22:49;;;;;;;0.98;0.57;;;13.00;99.90;;;;;;21005424;28;20075;-39
2022/10/06 19:32:51;;;;;;;1.08;0.40;;;13.00;99.90;;;;;;21033005;28;20066;-39
2022/10/06 19:42:52;;;;;;;1.42;0.38;;;13.00;99.90;;;;;;21031403;28;20074;-39
2022/10/06 19:52:54;;;;;;;2.70;0.60;;;12.80;99.90;;;;;;21023378;28;20063;-39
2022/10/06 20:02:55;;;;;;;2.80;0.73;;;12.80;99.90;;;;;;21012331;28;20208;-39
2022/10/06 20:12:57;;;;;;;1.90;0.90;;;12.70;99.90;;;;;;21022517;28;20172;-39
2022/10/06 20:22:58;;;;;;;2.65;0.60;;;12.70;99.90;;;;;;21028915;28;20131;-39
2022/10/06 20:32:59;;;;;;;7.20;1.65;;;12.70;99.90;;;;;;21037804;28;20043;-39
2022/10/06 20:43:00;;;;;;;1.50;1.05;;;12.70;99.90;;;;;;21032442;28;20040;-39
2022/10/06 20:53:01;;;;;;;1.75;0.28;;;12.60;99.90;;;;;;21039516;28;20109;-39
2022/10/06 21:03:02;;;;;;;2.15;0.93;;;12.50;99.90;;;;;;21028334;28;20043;-39
2022/10/06 21:13:03;;;;;;;2.30;0.50;;;12.30;99.90;;;;;;21020852;28;20090;-39
2022/10/06 21:23:04;;;;;;;1.90;0.80;;;12.40;99.90;;;;;;21018771;28;20073;-39
2022/10/06 21:33:05;;;;;;;1.90;0.95;;;12.30;99.90;;;;;;21017669;28;20434;-39
2022/10/06 21:43:06;;;;;;;2.28;1.15;;;12.20;99.90;;;;;;21021468;28;20378;-39
2022/10/06 21:53:07;;;;;;;6.72;1.80;;;12.00;99.90;;;;;;21029431;28;20140;-39
2022/10/06 22:03:08;;;;;;;2.83;1.15;;;12.00;99.90;;;;;;21028349;28;20112;-39
2022/10/06 22:13:09;;;;;;;2.28;0.95;;;11.80;99.90;;;;;;21027676;28;20116;-39
2022/10/06 22:23:10;;;;;;;2.47;0.80;;;11.70;99.90;;;;;;21031135;28;20040;-39
2022/10/06 22:33:12;;;;;;;3.33;1.20;;;11.60;99.90;;;;;;21028321;28;20043;-39
2022/10/06 22:43:13;;;;;;;3.80;1.10;;;11.60;99.90;;;;;;21032402;28;20101;-39
2022/10/06 22:53:15;;;;;;;6.20;1.35;;;11.50;99.90;;;;;;21030934;28;20115;-39
2022/10/06 23:03:17;;;;;;;1.95;0.70;;;11.40;99.90;;;;;;21038975;28;20133;-39
2022/10/06 23:13:19;;;;;;;6.65;1.30;;;11.40;99.90;;;;;;21036671;28;20052;-39
2022/10/06 23:23:20;;;;;;;2.72;0.80;;;11.50;99.90;;;;;;21012334;28;20098;-39
2022/10/06 23:33:21;;;;;;;2.17;0.90;;;11.50;99.90;;;;;;21038903;28;20040;-39
2022/10/06 23:43:23;;;;;;;2.22;1.15;;;11.50;99.90;;;;;;21033103;28;20114;-39
2022/10/06 23:53:25;;;;;;;5.93;1.10;;;11.40;99.90;;;;;;21030294;28;20035;-39
